createdAt,value
2017-11-07T00:01:48.959Z,102237.11
2017-11-07T00:03:50.628Z,102237.05
2017-11-07T00:05:52.477Z,102231.87
2017-11-07T00:07:54.522Z,102225.61
2017-11-07T00:09:56.448Z,102231.13
2017-11-07T00:11:58.600Z,102228.92
2017-11-07T00:14:00.619Z,102222.06
2017-11-07T00:16:02.516Z,102224.30
2017-11-07T00:18:04.654Z,102213.23
2017-11-07T00:20:06.733Z,102212.72
2017-11-07T00:22:08.579Z,102208.11
2017-11-07T00:24:10.246Z,102211.49
2017-11-07T00:26:11.974Z,102216.37
2017-11-07T00:28:13.526Z,102203.20
2017-11-07T00:30:15.396Z,102219.89
2017-11-07T00:32:17.251Z,102217.38
2017-11-07T00:34:19.213Z,102211.04
2017-11-07T00:36:20.774Z,102219.96
2017-11-07T00:38:22.533Z,102214.12
2017-11-07T00:40:23.976Z,102221.81
2017-11-07T00:42:25.933Z,102209.86
2017-11-07T00:44:31.074Z,102213.19
2017-11-07T00:46:32.922Z,102205.48
2017-11-07T00:48:35.047Z,102201.59
2017-11-07T00:50:36.805Z,102203.33
2017-11-07T00:52:38.491Z,102201.19
2017-11-07T00:54:40.334Z,102207.16
2017-11-07T00:56:42.094Z,102198.66
2017-11-07T00:58:44.290Z,102199.10
2017-11-07T01:00:46.134Z,102183.72
2017-11-07T01:02:47.894Z,102192.18
2017-11-07T01:04:49.656Z,102193.48
2017-11-07T01:06:51.514Z,102192.73
2017-11-07T01:08:53.331Z,102182.95
2017-11-07T01:10:55.318Z,102196.20
2017-11-07T01:12:57.172Z,102197.62
2017-11-07T01:14:58.927Z,102195.77
2017-11-07T01:17:00.684Z,102196.27
2017-11-07T01:19:02.533Z,102186.79
2017-11-07T01:21:04.146Z,102187.64
2017-11-07T01:23:05.922Z,102185.55
2017-11-07T01:25:07.722Z,102179.66
2017-11-07T01:27:09.567Z,102185.73
2017-11-07T01:29:11.328Z,102189.70
2017-11-07T01:31:14.210Z,102190.11
2017-11-07T01:33:16.081Z,102187.55
2017-11-07T01:35:17.923Z,102178.84
2017-11-07T01:37:19.842Z,102181.50
2017-11-07T01:39:21.646Z,102182.05
2017-11-07T01:41:23.397Z,102172.16
2017-11-07T01:43:25.131Z,102170.78
2017-11-07T01:45:27.330Z,102164.04
2017-11-07T01:47:29.164Z,102168.47
2017-11-07T01:49:31.012Z,102173.87
2017-11-07T01:51:32.890Z,102172.27
2017-11-07T01:53:34.643Z,102174.06
2017-11-07T01:55:36.576Z,102175.31
2017-11-07T01:57:38.363Z,102163.30
2017-11-07T01:59:40.121Z,102164.22
2017-11-07T02:01:41.875Z,102167.66
2017-11-07T02:03:43.929Z,102165.70
2017-11-07T02:05:45.683Z,102166.00
2017-11-07T02:07:47.534Z,102155.36
2017-11-07T02:09:49.314Z,102163.80
2017-11-07T02:11:51.161Z,102163.07
2017-11-07T02:13:52.882Z,102161.77
2017-11-07T02:15:54.657Z,102161.40
2017-11-07T02:17:56.414Z,102154.63
2017-11-07T02:19:58.159Z,102150.27
2017-11-07T02:21:59.920Z,102153.77
2017-11-07T02:24:01.696Z,102165.72
2017-11-07T02:26:03.740Z,102159.86
2017-11-07T02:28:05.525Z,102158.08
2017-11-07T02:30:07.569Z,102163.17
2017-11-07T02:32:09.328Z,102147.30
2017-11-07T02:34:11.085Z,102147.20
2017-11-07T02:36:12.840Z,102147.69
2017-11-07T02:38:14.589Z,102149.76
2017-11-07T02:40:16.641Z,102142.39
2017-11-07T02:42:18.404Z,102143.17
2017-11-07T02:44:20.163Z,102150.94
2017-11-07T02:46:22.433Z,102143.25
2017-11-07T02:48:24.197Z,102142.00
2017-11-07T02:50:26.128Z,102138.15
2017-11-07T02:52:27.797Z,102138.95
2017-11-07T02:54:29.555Z,102136.55
2017-11-07T02:56:31.286Z,102137.84
2017-11-07T02:58:33.042Z,102144.61
2017-11-07T03:00:34.808Z,102134.95
2017-11-07T03:02:36.779Z,102139.56
2017-11-07T03:04:38.618Z,102136.98
2017-11-07T03:06:40.288Z,102139.63
2017-11-07T03:08:41.929Z,102135.01
2017-11-07T03:10:43.804Z,102140.16
2017-11-07T03:12:45.444Z,102136.19
2017-11-07T03:14:47.403Z,102132.12
2017-11-07T03:16:49.060Z,102129.03
2017-11-07T03:18:50.813Z,102138.46
2017-11-07T03:20:52.799Z,102121.73
2017-11-07T03:22:54.650Z,102129.91
2017-11-07T03:24:56.488Z,102130.97
2017-11-07T03:26:58.250Z,102130.97
2017-11-07T03:28:59.865Z,102128.80
2017-11-07T03:31:01.637Z,102114.80
2017-11-07T03:33:03.410Z,102120.38
2017-11-07T03:35:05.171Z,102122.95
2017-11-07T03:37:06.838Z,102121.98
2017-11-07T03:39:08.657Z,102135.37
2017-11-07T03:41:10.491Z,102126.48
2017-11-07T03:43:12.315Z,102122.73
2017-11-07T03:45:14.138Z,102130.95
2017-11-07T03:47:16.820Z,102123.20
2017-11-07T03:49:18.574Z,102123.77
2017-11-07T03:51:20.322Z,102120.02
2017-11-07T03:53:22.089Z,102122.17
2017-11-07T03:55:23.854Z,102128.14
2017-11-07T03:57:25.601Z,102116.95
2017-11-07T03:59:27.253Z,102119.54
2017-11-07T04:01:29.006Z,102113.69
2017-11-07T04:03:30.758Z,102117.87
2017-11-07T04:05:32.612Z,102122.28
2017-11-07T04:07:34.449Z,102112.41
2017-11-07T04:09:36.232Z,102119.78
2017-11-07T04:11:37.784Z,102107.48
2017-11-07T04:13:39.634Z,102105.70
2017-11-07T04:15:41.494Z,102107.53
2017-11-07T04:17:43.097Z,102114.25
2017-11-07T04:19:45.016Z,102109.14
2017-11-07T04:21:46.961Z,102104.84
2017-11-07T04:23:48.840Z,102104.97
2017-11-07T04:25:50.484Z,102110.49
2017-11-07T04:27:52.363Z,102103.78
2017-11-07T04:29:54.093Z,102107.59
2017-11-07T04:31:55.880Z,102103.28
2017-11-07T04:33:57.806Z,102106.81
2017-11-07T04:35:59.570Z,102104.22
2017-11-07T04:38:02.084Z,102096.10
2017-11-07T04:40:03.890Z,102106.80
2017-11-07T04:42:05.646Z,102110.30
2017-11-07T04:44:07.722Z,102106.91
2017-11-07T04:46:09.774Z,102108.27
2017-11-07T04:48:11.527Z,102104.02
2017-11-07T04:50:13.292Z,102100.66
2017-11-07T04:52:15.174Z,102096.41
2017-11-07T04:54:17.004Z,102100.52
2017-11-07T04:56:19.082Z,102104.02
2017-11-07T04:58:21.130Z,102104.05
2017-11-07T05:00:24.726Z,102111.78
2017-11-07T05:02:26.495Z,102098.67
2017-11-07T05:04:28.847Z,102102.81
2017-11-07T05:06:30.524Z,102098.75
2017-11-07T05:08:32.394Z,102106.06
2017-11-07T05:10:34.168Z,102106.00
2017-11-07T05:12:36.294Z,102107.78
2017-11-07T05:14:38.139Z,102102.25
2017-11-07T05:16:40.044Z,102104.47
2017-11-07T05:18:42.295Z,102104.02
2017-11-07T05:20:44.130Z,102108.70
2017-11-07T05:22:45.888Z,102100.17
2017-11-07T05:24:47.957Z,102101.13
2017-11-07T05:26:50.009Z,102105.86
2017-11-07T05:28:51.978Z,102096.46
2017-11-07T05:30:53.842Z,102113.19
2017-11-07T05:32:55.897Z,102105.14
2017-11-07T05:34:57.865Z,102105.19
2017-11-07T05:36:59.589Z,102102.17
2017-11-07T05:39:01.295Z,102104.27
2017-11-07T05:41:03.414Z,102109.42
2017-11-07T05:43:06.164Z,102103.03
2017-11-07T05:45:08.169Z,102107.72
2017-11-07T05:47:11.484Z,102104.76
2017-11-07T05:49:13.905Z,102103.78
2017-11-07T05:51:15.679Z,102108.20
2017-11-07T05:53:17.436Z,102104.52
2017-11-07T05:55:21.329Z,102101.50
2017-11-07T05:57:23.091Z,102108.70
2017-11-07T05:59:24.968Z,102105.20
2017-11-07T06:01:28.188Z,102100.59
2017-11-07T06:05:44.260Z,102102.92
2017-11-07T06:07:46.105Z,102101.25
2017-11-07T06:09:47.748Z,102100.95
2017-11-07T06:11:50.742Z,102096.39
2017-11-07T06:13:56.211Z,102100.58
2017-11-07T06:15:58.146Z,102096.78
2017-11-07T06:18:02.793Z,102105.31
2017-11-07T06:20:04.829Z,102103.11
2017-11-07T06:22:06.680Z,102103.47
2017-11-07T06:26:18.760Z,102092.52
2017-11-07T06:28:21.566Z,102104.04
2017-11-07T06:30:25.262Z,102110.91
2017-11-07T06:32:28.318Z,102111.89
2017-11-07T06:34:31.588Z,102105.08
2017-11-07T06:36:35.013Z,102116.25
2017-11-07T06:38:38.149Z,102114.53
2017-11-07T06:40:42.354Z,102104.20
2017-11-07T06:42:46.654Z,102105.56
2017-11-07T06:44:51.125Z,102098.62
2017-11-07T06:46:53.228Z,102099.47
2017-11-07T06:48:56.680Z,102090.08
2017-11-07T06:50:59.798Z,102095.00
2017-11-07T06:53:03.297Z,102102.91
2017-11-07T06:55:06.909Z,102085.08
2017-11-07T06:57:11.452Z,102089.44
2017-11-07T06:59:15.756Z,102090.67
2017-11-07T07:01:19.970Z,102082.57
2017-11-07T07:03:24.316Z,102078.06
2017-11-07T07:05:30.036Z,102086.98
2017-11-07T07:09:47.567Z,102075.86
2017-11-07T07:11:50.720Z,102075.87
2017-11-07T07:13:54.241Z,102085.38
2017-11-07T07:15:57.423Z,102087.09
2017-11-07T07:18:00.604Z,102080.22
2017-11-07T07:20:03.997Z,102078.92
2017-11-07T07:22:06.984Z,102084.09
2017-11-07T07:24:10.319Z,102081.58
2017-11-07T07:26:14.214Z,102079.89
2017-11-07T07:28:18.639Z,102078.60
2017-11-07T07:32:37.087Z,102066.15
2017-11-07T07:34:38.862Z,102061.16
2017-11-07T07:36:44.828Z,102074.85
2017-11-07T07:38:48.664Z,102071.80
2017-11-07T07:40:51.882Z,102070.94
2017-11-07T07:42:56.508Z,102070.32
2017-11-07T07:44:58.889Z,102078.98
2017-11-07T07:47:00.846Z,102075.17
2017-11-07T07:49:02.438Z,102072.16
2017-11-07T07:51:04.167Z,102059.70
2017-11-07T07:53:06.042Z,102059.33
2017-11-07T07:55:07.794Z,102057.34
2017-11-07T07:57:09.582Z,102059.81
2017-11-07T07:59:11.503Z,102060.72
2017-11-07T08:01:13.361Z,102058.23
2017-11-07T08:03:15.313Z,102054.78
2017-11-07T08:05:17.292Z,102056.58
2017-11-07T08:07:19.161Z,102054.86
2017-11-07T08:09:20.906Z,102059.92
2017-11-07T08:11:23.674Z,102062.48
2017-11-07T08:13:25.432Z,102065.46
2017-11-07T08:15:30.637Z,102066.84
2017-11-07T08:17:32.351Z,102058.77
2017-11-07T08:19:34.073Z,102062.52
2017-11-07T08:21:36.023Z,102054.86
2017-11-07T08:23:37.879Z,102045.95
2017-11-07T08:25:39.794Z,102054.42
2017-11-07T08:27:41.691Z,102047.59
2017-11-07T08:29:43.520Z,102045.33
2017-11-07T08:31:45.593Z,102052.28
2017-11-07T08:33:47.471Z,102048.74
2017-11-07T08:35:49.212Z,102041.91
2017-11-07T08:37:50.882Z,102036.38
2017-11-07T08:39:52.560Z,102037.70
2017-11-07T08:41:54.439Z,102036.92
2017-11-07T08:43:58.372Z,102033.03
2017-11-07T08:46:01.644Z,102044.80
2017-11-07T08:48:04.742Z,102036.00
2017-11-07T08:50:07.777Z,102038.69
2017-11-07T08:52:11.991Z,102036.74
2017-11-07T08:54:16.842Z,102047.91
2017-11-07T08:56:20.970Z,102040.52
2017-11-07T08:58:26.382Z,102028.85
2017-11-07T09:00:28.312Z,102024.38
2017-11-07T09:02:30.159Z,102033.64
2017-11-07T09:04:31.915Z,102028.05
2017-11-07T09:06:33.832Z,102015.66
2017-11-07T09:08:35.638Z,102025.04
2017-11-07T09:10:37.402Z,102017.80
2017-11-07T09:12:39.682Z,102028.27
2017-11-07T09:14:41.962Z,102018.89
2017-11-07T09:16:45.363Z,102031.67
2017-11-07T09:18:47.548Z,102025.95
2017-11-07T09:20:49.365Z,102015.92
2017-11-07T09:22:51.242Z,102014.64
2017-11-07T09:24:53.201Z,102016.48
2017-11-07T09:26:56.485Z,102018.69
2017-11-07T09:28:58.427Z,102010.34
2017-11-07T09:31:00.191Z,102016.06
2017-11-07T09:33:02.176Z,102005.30
2017-11-07T09:35:05.679Z,102014.16
2017-11-07T09:37:10.323Z,102014.95
2017-11-07T09:39:15.814Z,102000.02
2017-11-07T09:41:20.972Z,102009.43
2017-11-07T09:43:24.711Z,102022.38
2017-11-07T09:45:26.597Z,102004.02
2017-11-07T09:47:28.567Z,101996.23
2017-11-07T09:49:30.417Z,102000.20
2017-11-07T09:51:32.275Z,102006.17
2017-11-07T09:53:34.145Z,102012.93
2017-11-07T09:55:36.081Z,102001.94
2017-11-07T09:57:37.863Z,101992.84
2017-11-07T09:59:39.600Z,101993.70
2017-11-07T10:01:41.219Z,101987.48
2017-11-07T10:03:42.888Z,101990.24
2017-11-07T10:05:44.872Z,101974.47
2017-11-07T10:07:46.710Z,101980.34
2017-11-07T10:09:48.375Z,101972.69
2017-11-07T10:11:50.161Z,101963.27
2017-11-07T10:13:52.008Z,101969.73
2017-11-07T10:15:53.761Z,101951.44
2017-11-07T10:17:55.703Z,101953.01
2017-11-07T10:19:57.553Z,101956.39
2017-11-07T10:21:59.131Z,101949.59
2017-11-07T10:24:01.306Z,101947.84
2017-11-07T10:26:03.270Z,101934.22
2017-11-07T10:28:05.234Z,101943.13
2017-11-07T10:30:07.276Z,101930.20
2017-11-07T10:32:09.190Z,101932.31
2017-11-07T10:34:11.072Z,101917.25
2017-11-07T10:36:12.747Z,101919.09
2017-11-07T10:38:14.879Z,101914.66
2017-11-07T10:40:16.894Z,101916.81
2017-11-07T10:42:18.809Z,101909.22
2017-11-07T10:44:20.960Z,101906.20
2017-11-07T10:46:25.075Z,101900.04
2017-11-07T10:48:27.276Z,101894.02
2017-11-07T10:50:29.159Z,101896.83
2017-11-07T10:52:30.959Z,101884.52
2017-11-07T10:54:32.557Z,101882.70
2017-11-07T10:56:34.250Z,101883.02
2017-11-07T10:58:35.917Z,101874.05
2017-11-07T11:00:38.155Z,101878.03
2017-11-07T11:02:40.242Z,101870.61
2017-11-07T11:04:43.587Z,101869.88
2017-11-07T11:06:48.730Z,101876.08
2017-11-07T11:08:53.499Z,101861.44
2017-11-07T11:10:59.381Z,101861.02
2017-11-07T11:13:05.230Z,101851.69
2017-11-07T11:15:10.579Z,101852.12
2017-11-07T11:17:12.642Z,101856.03
2017-11-07T11:19:14.514Z,101852.64
2017-11-07T11:21:16.475Z,101858.67
2017-11-07T11:23:18.721Z,101857.87
2017-11-07T11:25:20.677Z,101856.52
2017-11-07T11:27:22.747Z,101844.46
2017-11-07T11:29:24.484Z,101843.73
2017-11-07T11:31:29.322Z,101840.22
2017-11-07T11:33:31.187Z,101834.56
2017-11-07T11:35:33.080Z,101833.41
2017-11-07T11:37:37.004Z,101825.16
2017-11-07T11:39:40.182Z,101823.63
2017-11-07T11:41:43.292Z,101828.41
2017-11-07T11:43:46.553Z,101823.53
2017-11-07T11:45:48.306Z,101826.00
2017-11-07T11:47:50.113Z,101827.21
2017-11-07T11:49:52.808Z,101829.81
2017-11-07T11:51:54.558Z,101822.98
2017-11-07T11:53:56.527Z,101812.29
2017-11-07T11:55:58.361Z,101805.33
2017-11-07T11:58:00.233Z,101818.55
2017-11-07T12:00:02.924Z,101810.30
2017-11-07T12:02:04.956Z,101810.80
2017-11-07T12:04:08.264Z,101803.84
2017-11-07T12:08:14.183Z,101795.73
2017-11-07T12:10:19.202Z,101784.99
2017-11-07T12:12:21.429Z,101784.39
2017-11-07T12:14:23.283Z,101782.61
2017-11-07T12:16:25.160Z,101779.22
2017-11-07T12:18:27.047Z,101780.34
2017-11-07T12:20:29.037Z,101780.89
2017-11-07T12:22:31.598Z,101784.69
2017-11-07T12:24:33.366Z,101780.97
2017-11-07T12:26:35.291Z,101774.75
2017-11-07T12:28:37.348Z,101771.63
2017-11-07T12:30:39.186Z,101762.53
2017-11-07T12:32:41.322Z,101762.52
2017-11-07T12:34:43.081Z,101761.23
2017-11-07T12:36:45.067Z,101759.50
2017-11-07T12:38:46.999Z,101763.38
2017-11-07T12:40:49.067Z,101759.14
2017-11-07T12:42:51.002Z,101751.24
2017-11-07T12:44:52.792Z,101748.09
2017-11-07T12:46:54.634Z,101750.86
2017-11-07T12:48:56.396Z,101742.76
2017-11-07T12:50:58.162Z,101736.52
2017-11-07T12:52:59.927Z,101734.73
2017-11-07T12:55:01.880Z,101726.83
2017-11-07T12:57:03.748Z,101733.95
2017-11-07T12:59:05.833Z,101726.11
2017-11-07T13:01:08.470Z,101730.36
2017-11-07T13:03:10.339Z,101729.31
2017-11-07T13:05:12.491Z,101718.50
2017-11-07T13:07:15.968Z,101720.05
2017-11-07T13:09:20.885Z,101720.77
2017-11-07T13:11:24.560Z,101719.52
2017-11-07T13:13:27.704Z,101718.87
2017-11-07T13:15:33.425Z,101719.36
2017-11-07T13:17:35.520Z,101719.20
2017-11-07T13:19:39.410Z,101721.48
2017-11-07T13:21:42.153Z,101718.98
2017-11-07T13:23:43.958Z,101712.70
2017-11-07T13:25:46.131Z,101716.56
2017-11-07T13:27:47.751Z,101715.84
2017-11-07T13:29:51.148Z,101719.56
2017-11-07T13:31:55.140Z,101712.23
2017-11-07T13:33:58.206Z,101708.41
2017-11-07T13:36:01.210Z,101706.46
2017-11-07T13:38:04.462Z,101711.23
2017-11-07T13:40:07.582Z,101717.91
2017-11-07T13:42:10.664Z,101714.47
2017-11-07T13:44:13.758Z,101710.36
2017-11-07T13:46:18.331Z,101707.75
2017-11-07T13:48:21.638Z,101709.75
2017-11-07T13:50:24.654Z,101716.02
2017-11-07T13:52:28.761Z,101704.34
2017-11-07T13:54:32.917Z,101701.94
2017-11-07T13:56:37.752Z,101711.63
2017-11-07T13:58:43.967Z,101697.66
2017-11-07T14:00:49.007Z,101695.13
2017-11-07T14:02:54.289Z,101684.00
2017-11-07T14:04:58.558Z,101686.77
2017-11-07T14:07:03.300Z,101680.77
2017-11-07T14:09:09.487Z,101682.19
2017-11-07T14:11:15.198Z,101683.61
2017-11-07T14:13:18.572Z,101677.59
2017-11-07T14:15:22.287Z,101674.14
2017-11-07T14:17:25.884Z,101672.84
2017-11-07T14:19:31.484Z,101674.19
2017-11-07T14:21:34.595Z,101683.08
2017-11-07T14:23:37.492Z,101665.31
2017-11-07T14:25:40.882Z,101665.77
2017-11-07T14:27:45.449Z,101668.30
2017-11-07T14:29:47.631Z,101668.77
2017-11-07T14:31:49.599Z,101655.20
2017-11-07T14:33:51.308Z,101667.81
2017-11-07T14:35:53.175Z,101662.77
2017-11-07T14:37:55.038Z,101651.47
2017-11-07T14:39:56.836Z,101653.33
2017-11-07T14:41:58.763Z,101649.47
2017-11-07T14:44:00.720Z,101650.48
2017-11-07T14:46:02.574Z,101651.95
2017-11-07T14:48:05.721Z,101653.77
2017-11-07T14:50:08.803Z,101646.19
2017-11-07T14:52:12.385Z,101646.07
2017-11-07T14:54:15.518Z,101654.93
2017-11-07T14:56:17.283Z,101645.24
2017-11-07T14:58:21.054Z,101644.27
2017-11-07T15:00:24.311Z,101651.47
2017-11-07T15:02:26.151Z,101644.06
2017-11-07T15:04:27.882Z,101634.23
2017-11-07T15:06:29.559Z,101628.20
2017-11-07T15:08:31.910Z,101623.76
2017-11-07T15:10:38.544Z,101622.09
2017-11-07T15:12:40.441Z,101623.14
2017-11-07T15:14:43.391Z,101630.37
2017-11-07T15:16:47.618Z,101623.21
2017-11-07T15:18:52.140Z,101631.57
2017-11-07T15:20:56.320Z,101621.75
2017-11-07T15:23:00.591Z,101616.32
2017-11-07T15:25:06.079Z,101618.03
2017-11-07T15:27:12.239Z,101627.96
2017-11-07T15:29:17.198Z,101615.99
2017-11-07T15:31:19.183Z,101606.05
2017-11-07T15:33:23.512Z,101604.00
2017-11-07T15:35:27.681Z,101618.77
2017-11-07T15:37:29.789Z,101603.65
2017-11-07T15:39:32.689Z,101602.53
2017-11-07T15:41:34.491Z,101601.39
2017-11-07T15:43:36.870Z,101599.60
2017-11-07T15:45:40.956Z,101598.31
2017-11-07T15:47:44.334Z,101605.11
2017-11-07T15:49:47.827Z,101605.30
2017-11-07T15:51:51.039Z,101608.61
2017-11-07T15:53:55.158Z,101603.52
2017-11-07T15:55:57.355Z,101610.72
2017-11-07T15:57:59.091Z,101611.78
2017-11-07T16:00:01.067Z,101603.43
2017-11-07T16:02:03.123Z,101599.02
2017-11-07T16:04:05.486Z,101606.92
2017-11-07T16:06:07.243Z,101615.16
2017-11-07T16:08:09.091Z,101603.48
2017-11-07T16:10:10.762Z,101606.52
2017-11-07T16:12:12.728Z,101613.53
2017-11-07T16:14:14.598Z,101619.70
2017-11-07T16:16:16.422Z,101617.54
2017-11-07T16:18:18.191Z,101617.02
2017-11-07T16:20:20.076Z,101624.69
2017-11-07T16:22:22.089Z,101618.27
2017-11-07T16:24:23.771Z,101618.27
2017-11-07T16:26:27.417Z,101626.87
2017-11-07T16:28:30.820Z,101609.53
2017-11-07T16:30:33.902Z,101628.07
2017-11-07T16:32:38.576Z,101611.89
2017-11-07T16:34:42.897Z,101618.70
2017-11-07T16:36:45.085Z,101611.78
2017-11-07T16:38:48.217Z,101606.27
2017-11-07T16:40:50.613Z,101610.50
2017-11-07T16:42:52.809Z,101612.30
2017-11-07T16:44:55.171Z,101596.92
2017-11-07T16:46:57.443Z,101603.14
2017-11-07T16:48:59.705Z,101596.33
2017-11-07T16:51:01.849Z,101601.58
2017-11-07T16:53:04.228Z,101595.31
2017-11-07T16:55:06.378Z,101600.20
2017-11-07T16:57:08.767Z,101594.17
2017-11-07T16:59:11.252Z,101598.50
2017-11-07T17:01:14.538Z,101586.42
2017-11-07T17:03:16.652Z,101594.06
2017-11-07T17:05:19.777Z,101586.55
2017-11-07T17:07:21.969Z,101587.28
2017-11-07T17:09:24.220Z,101583.36
2017-11-07T17:11:26.666Z,101590.13
2017-11-07T17:13:28.936Z,101592.07
2017-11-07T17:15:30.777Z,101582.45
2017-11-07T17:17:32.966Z,101589.18
2017-11-07T17:19:37.897Z,101587.25
2017-11-07T17:21:40.055Z,101585.99
2017-11-07T17:23:41.860Z,101586.50
2017-11-07T17:25:43.976Z,101591.38
2017-11-07T17:27:46.714Z,101583.02
2017-11-07T17:29:48.777Z,101583.06
2017-11-07T17:31:51.060Z,101577.42
2017-11-07T17:33:53.047Z,101572.25
2017-11-07T17:35:55.103Z,101578.92
2017-11-07T17:37:57.174Z,101574.58
2017-11-07T17:39:59.377Z,101568.62
2017-11-07T17:42:01.614Z,101573.06
2017-11-07T17:46:11.757Z,101571.39
2017-11-07T17:48:15.224Z,101572.09
2017-11-07T17:50:18.315Z,101567.34
2017-11-07T17:52:21.611Z,101556.56
2017-11-07T17:54:24.690Z,101563.47
2017-11-07T17:56:26.495Z,101564.42
2017-11-07T17:58:28.331Z,101559.73
2017-11-07T18:00:31.727Z,101558.38
2017-11-07T18:02:35.215Z,101551.57
2017-11-07T18:04:40.562Z,101550.17
2017-11-07T18:06:45.912Z,101554.48
2017-11-07T18:08:51.782Z,101557.61
2017-11-07T18:10:53.606Z,101553.63
2017-11-07T18:12:55.576Z,101540.25
2017-11-07T18:14:57.417Z,101539.98
2017-11-07T18:16:59.086Z,101539.77
2017-11-07T18:19:01.453Z,101536.05
2017-11-07T18:21:03.414Z,101537.50
2017-11-07T18:23:06.253Z,101533.91
2017-11-07T18:25:09.043Z,101531.32
2017-11-07T18:27:13.039Z,101536.55
2017-11-07T18:29:16.093Z,101530.00
2017-11-07T18:31:19.121Z,101531.72
2017-11-07T18:33:22.226Z,101532.17
2017-11-07T18:35:26.467Z,101529.66
2017-11-07T18:37:31.129Z,101536.62
2017-11-07T18:39:33.132Z,101521.19
2017-11-07T18:41:34.917Z,101531.14
2017-11-07T18:45:42.715Z,101527.17
2017-11-07T18:47:44.676Z,101520.64
2017-11-07T18:49:46.853Z,101521.03
2017-11-07T18:51:48.722Z,101509.55
2017-11-07T18:53:50.530Z,101517.75
2017-11-07T18:55:52.294Z,101506.91
2017-11-07T18:57:53.966Z,101509.33
2017-11-07T18:59:55.834Z,101504.09
2017-11-07T19:01:57.824Z,101505.14
2017-11-07T19:03:59.932Z,101497.36
2017-11-07T19:06:02.331Z,101499.73
2017-11-07T19:08:04.169Z,101496.54
2017-11-07T19:10:05.934Z,101499.81
2017-11-07T19:12:07.971Z,101501.81
2017-11-07T19:14:09.843Z,101497.31
2017-11-07T19:16:11.801Z,101494.98
2017-11-07T19:18:13.555Z,101501.47
2017-11-07T19:20:15.412Z,101500.72
2017-11-07T19:22:17.371Z,101502.68
2017-11-07T19:24:19.239Z,101503.45
2017-11-07T19:26:21.095Z,101492.38
2017-11-07T19:30:26.259Z,101503.19
2017-11-07T19:32:28.017Z,101497.06
2017-11-07T19:34:29.960Z,101492.03
2017-11-07T19:36:31.720Z,101487.64
2017-11-07T19:38:33.791Z,101485.05
2017-11-07T19:40:35.642Z,101487.64
2017-11-07T19:42:37.605Z,101491.39
2017-11-07T19:44:39.728Z,101491.97
2017-11-07T19:46:41.413Z,101487.34
2017-11-07T19:48:43.259Z,101486.79
2017-11-07T19:50:45.043Z,101482.51
2017-11-07T19:52:46.932Z,101485.84
2017-11-07T19:54:48.934Z,101490.09
2017-11-07T19:56:50.694Z,101492.78
2017-11-07T19:58:52.654Z,101483.06
2017-11-07T20:00:54.520Z,101486.25
2017-11-07T20:02:56.688Z,101483.59
2017-11-07T20:04:58.533Z,101485.55
2017-11-07T20:07:00.407Z,101488.27
2017-11-07T20:09:02.331Z,101481.17
2017-11-07T20:11:04.243Z,101474.75
2017-11-07T20:13:06.402Z,101482.06
2017-11-07T20:15:08.234Z,101481.77
2017-11-07T20:17:10.093Z,101474.61
2017-11-07T20:19:12.074Z,101473.58
2017-11-07T20:21:13.898Z,101468.33
2017-11-07T20:23:15.768Z,101471.63
2017-11-07T20:25:17.735Z,101467.70
2017-11-07T20:27:19.577Z,101471.58
2017-11-07T20:29:21.341Z,101466.19
2017-11-07T20:31:24.483Z,101468.39
2017-11-07T20:33:28.149Z,101463.44
2017-11-07T20:35:31.442Z,101468.69
2017-11-07T20:37:33.803Z,101462.45
2017-11-07T20:39:35.654Z,101473.91
2017-11-07T20:41:40.985Z,101469.97
2017-11-07T20:43:42.935Z,101457.72
2017-11-07T20:45:44.727Z,101471.30
2017-11-07T20:47:47.483Z,101468.14
2017-11-07T20:49:49.336Z,101465.06
2017-11-07T20:51:51.296Z,101470.69
2017-11-07T20:53:53.253Z,101467.20
2017-11-07T20:55:55.021Z,101472.72
2017-11-07T20:57:56.776Z,101456.69
2017-11-07T20:59:58.533Z,101456.63
2017-11-07T21:02:00.483Z,101461.21
2017-11-07T21:04:02.375Z,101458.94
2017-11-07T21:06:04.206Z,101459.89
2017-11-07T21:08:06.169Z,101460.97
2017-11-07T21:10:08.048Z,101456.41
2017-11-07T21:12:09.995Z,101457.09
2017-11-07T21:16:25.773Z,101453.39
2017-11-07T21:18:27.532Z,101450.83
2017-11-07T21:20:29.615Z,101465.06
2017-11-07T21:22:31.575Z,101455.98
2017-11-07T21:24:33.621Z,101454.89
2017-11-07T21:26:35.599Z,101455.21
2017-11-07T21:30:44.011Z,101457.02
2017-11-07T21:32:45.769Z,101458.83
2017-11-07T21:34:47.725Z,101461.49
2017-11-07T21:36:49.464Z,101457.14
2017-11-07T21:38:51.222Z,101459.70
2017-11-07T21:40:52.973Z,101445.73
2017-11-07T21:42:54.735Z,101448.61
2017-11-07T21:44:56.619Z,101452.73
2017-11-07T21:46:58.574Z,101451.02
2017-11-07T21:49:02.009Z,101438.59
2017-11-07T21:51:06.589Z,101431.33
2017-11-07T21:53:10.192Z,101429.87
2017-11-07T21:55:14.525Z,101434.97
2017-11-07T21:57:18.481Z,101435.12
2017-11-07T22:01:38.807Z,101434.69
2017-11-07T22:03:40.977Z,101429.56
2017-11-07T22:05:43.965Z,101440.22
2017-11-07T22:07:45.925Z,101427.88
2017-11-07T22:09:47.893Z,101432.89
2017-11-07T22:11:50.158Z,101431.20
2017-11-07T22:13:52.002Z,101432.70
2017-11-07T22:18:00.317Z,101417.29
2017-11-07T22:20:02.167Z,101417.63
2017-11-07T22:22:03.934Z,101428.27
2017-11-07T22:24:05.902Z,101428.42
2017-11-07T22:26:07.650Z,101423.39
2017-11-07T22:28:09.606Z,101424.76
2017-11-07T22:30:11.364Z,101433.02
2017-11-07T22:32:13.212Z,101423.86
2017-11-07T22:34:15.079Z,101422.22
2017-11-07T22:36:16.933Z,101426.55
2017-11-07T22:38:18.806Z,101424.87
2017-11-07T22:40:20.534Z,101422.20
2017-11-07T22:42:22.210Z,101426.69
2017-11-07T22:44:24.284Z,101421.78
2017-11-07T22:46:26.124Z,101420.83
2017-11-07T22:48:27.885Z,101421.03
2017-11-07T22:50:29.852Z,101411.25
2017-11-07T22:52:31.803Z,101408.34
2017-11-07T22:54:33.655Z,101407.05
2017-11-07T22:56:35.614Z,101404.80
2017-11-07T22:58:37.484Z,101408.00
2017-11-07T23:00:39.441Z,101405.73
2017-11-07T23:02:41.396Z,101413.07
2017-11-07T23:04:43.281Z,101407.21
2017-11-07T23:06:45.006Z,101403.31
2017-11-07T23:08:46.773Z,101399.98
2017-11-07T23:15:35.975Z,101406.95
2017-11-07T23:17:37.926Z,101400.91
2017-11-07T23:19:39.901Z,101403.78
2017-11-07T23:21:42.451Z,101406.50
2017-11-07T23:23:47.134Z,101398.45
2017-11-07T23:25:48.937Z,101397.66
2017-11-07T23:27:50.897Z,101400.51
2017-11-07T23:29:52.759Z,101392.38
2017-11-07T23:31:54.695Z,101396.77
2017-11-07T23:33:56.371Z,101396.63
2017-11-07T23:35:58.844Z,101411.96
2017-11-07T23:38:00.806Z,101399.05
2017-11-07T23:40:02.855Z,101403.88
2017-11-07T23:42:04.612Z,101405.59
2017-11-07T23:44:06.372Z,101400.25
2017-11-07T23:46:08.237Z,101399.30
2017-11-07T23:48:10.203Z,101387.50